createdAt,value
2022-08-16T00:01:24.447Z,63.18
2022-08-16T00:03:53.750Z,63.58
2022-08-16T00:06:21.765Z,63.46
2022-08-16T00:08:49.997Z,64.27
2022-08-16T00:11:20.971Z,64.09
2022-08-16T00:13:53.451Z,64.10
2022-08-16T00:17:05.923Z,64.22
2022-08-16T00:19:15.760Z,64.73
2022-08-16T00:21:44.524Z,64.68
2022-08-16T00:24:13.449Z,64.85
2022-08-16T00:26:58.422Z,64.78
2022-08-16T00:29:25.570Z,64.40
2022-08-16T00:32:00.090Z,64.95
2022-08-16T00:34:41.906Z,65.00
2022-08-16T00:37:17.230Z,64.89
2022-08-16T00:39:56.992Z,65.19
2022-08-16T00:42:30.053Z,64.60
2022-08-16T00:45:09.768Z,65.10
2022-08-16T00:47:49.222Z,65.18
2022-08-16T00:50:36.255Z,64.59
2022-08-16T00:53:07.353Z,64.51
2022-08-16T00:55:38.291Z,64.34
2022-08-16T00:58:13.087Z,64.78
2022-08-16T01:00:45.593Z,65.03
2022-08-16T01:03:30.369Z,64.75
2022-08-16T01:05:59.376Z,64.63
2022-08-16T01:08:36.278Z,64.69
2022-08-16T01:11:05.512Z,64.57
2022-08-16T01:13:37.219Z,64.86
2022-08-16T01:16:12.930Z,64.19
2022-08-16T01:18:59.204Z,64.22
2022-08-16T01:21:52.583Z,64.49
2022-08-16T01:24:51.552Z,64.26
2022-08-16T01:27:30.966Z,64.23
2022-08-16T01:30:18.073Z,64.13
2022-08-16T01:33:01.570Z,64.50
2022-08-16T01:35:46.360Z,64.67
2022-08-16T01:38:35.558Z,64.17
2022-08-16T01:41:09.503Z,64.14
2022-08-16T01:43:40.264Z,64.52
2022-08-16T01:46:29.801Z,64.60
2022-08-16T01:49:36.004Z,64.45
2022-08-16T01:52:28.017Z,64.61
2022-08-16T01:55:05.363Z,63.99
2022-08-16T01:57:35.600Z,64.02
2022-08-16T02:00:19.565Z,64.46
2022-08-16T02:02:46.884Z,64.06
2022-08-16T02:05:21.160Z,64.60
2022-08-16T02:07:52.022Z,64.09
2022-08-16T02:10:20.862Z,64.53
2022-08-16T02:12:55.741Z,64.41
2022-08-16T02:15:28.218Z,64.33
2022-08-16T02:18:01.414Z,64.55
2022-08-16T02:20:35.143Z,64.01
2022-08-16T02:23:05.922Z,64.06
2022-08-16T02:25:52.267Z,64.10
2022-08-16T02:28:23.558Z,64.30
2022-08-16T02:30:53.288Z,64.44
2022-08-16T02:33:24.359Z,64.47
2022-08-16T02:36:15.209Z,64.02
2022-08-16T02:39:04.463Z,64.51
2022-08-16T02:41:31.470Z,64.19
2022-08-16T02:44:01.141Z,64.72
2022-08-16T02:46:30.006Z,64.55
2022-08-16T02:49:03.316Z,64.89
2022-08-16T02:51:33.820Z,64.78
2022-08-16T02:54:03.148Z,64.65
2022-08-16T02:56:32.086Z,64.49
2022-08-16T02:58:59.426Z,64.50
2022-08-16T03:01:36.630Z,64.70
2022-08-16T03:04:28.910Z,64.83
2022-08-16T03:06:57.936Z,64.81
2022-08-16T03:09:41.357Z,64.37
2022-08-16T03:12:11.752Z,64.53
2022-08-16T03:14:43.748Z,64.44
2022-08-16T03:17:11.203Z,64.08
2022-08-16T03:19:47.903Z,64.80
2022-08-16T03:22:28.403Z,64.58
2022-08-16T03:25:01.226Z,64.70
2022-08-16T03:27:32.791Z,64.27
2022-08-16T03:30:17.412Z,64.28
2022-08-16T03:32:55.799Z,64.22
2022-08-16T03:35:32.620Z,64.71
2022-08-16T03:38:33.714Z,64.24
2022-08-16T03:40:56.127Z,64.36
2022-08-16T03:43:51.543Z,64.77
2022-08-16T03:46:44.481Z,64.81
2022-08-16T03:49:03.030Z,64.80
2022-08-16T03:51:30.465Z,64.49
2022-08-16T03:54:03.455Z,64.43
2022-08-16T03:56:56.724Z,64.48
2022-08-16T03:59:29.747Z,64.57
2022-08-16T04:02:02.020Z,65.13
2022-08-16T04:04:33.430Z,65.15
2022-08-16T04:07:05.812Z,65.08
2022-08-16T04:09:38.101Z,65.15
2022-08-16T04:12:10.652Z,65.17
2022-08-16T04:14:46.773Z,65.20
2022-08-16T04:17:17.132Z,65.10
2022-08-16T04:19:45.435Z,65.28
2022-08-16T04:22:17.271Z,65.16
2022-08-16T04:24:55.327Z,64.94
2022-08-16T04:27:29.012Z,65.02
2022-08-16T04:30:03.052Z,65.25
2022-08-16T04:32:35.527Z,65.54
2022-08-16T04:35:12.368Z,65.15
2022-08-16T04:37:44.954Z,65.43
2022-08-16T04:40:20.531Z,65.77
2022-08-16T04:42:50.402Z,65.46
2022-08-16T04:45:18.643Z,65.89
2022-08-16T04:48:05.897Z,66.32
2022-08-16T04:50:43.562Z,66.22
2022-08-16T04:53:15.885Z,66.51
2022-08-16T04:55:45.251Z,66.31
2022-08-16T04:58:44.763Z,65.73
2022-08-16T05:01:01.901Z,65.57
2022-08-16T05:03:31.052Z,65.67
2022-08-16T05:05:59.724Z,65.43
2022-08-16T05:08:32.804Z,65.80
2022-08-16T05:11:16.928Z,65.57
2022-08-16T05:13:47.513Z,65.34
2022-08-16T05:16:30.115Z,65.54
2022-08-16T05:19:11.599Z,65.61
2022-08-16T05:21:47.623Z,65.65
2022-08-16T05:24:14.565Z,65.15
2022-08-16T05:26:51.911Z,64.89
2022-08-16T05:29:20.622Z,64.78
2022-08-16T05:32:01.467Z,64.83
2022-08-16T05:34:29.228Z,64.94
2022-08-16T05:36:57.463Z,64.76
2022-08-16T05:39:33.362Z,64.69
2022-08-16T05:42:04.848Z,65.32
2022-08-16T05:44:32.556Z,64.88
2022-08-16T05:47:02.051Z,64.65
2022-08-16T05:49:39.890Z,64.83
2022-08-16T05:52:13.684Z,64.90
2022-08-16T05:54:47.569Z,64.22
2022-08-16T05:57:20.657Z,64.32
2022-08-16T05:59:50.736Z,64.26
2022-08-16T06:02:33.491Z,64.04
2022-08-16T06:05:02.246Z,64.14
2022-08-16T06:07:31.919Z,64.46
2022-08-16T06:10:09.684Z,63.65
2022-08-16T06:12:37.464Z,63.27
2022-08-16T06:15:11.982Z,63.58
2022-08-16T06:17:44.327Z,62.67
2022-08-16T06:20:35.466Z,62.90
2022-08-16T06:23:20.029Z,62.53
2022-08-16T06:25:59.408Z,63.04
2022-08-16T06:28:36.443Z,63.44
2022-08-16T06:31:12.079Z,63.57
2022-08-16T06:33:42.331Z,63.23
2022-08-16T06:36:14.762Z,63.02
2022-08-16T06:38:55.450Z,62.29
2022-08-16T06:41:29.339Z,62.46
2022-08-16T06:44:21.093Z,63.21
2022-08-16T06:46:53.778Z,62.99
2022-08-16T06:49:21.180Z,63.21
2022-08-16T06:51:48.996Z,63.32
2022-08-16T06:54:21.740Z,63.31
2022-08-16T06:56:52.368Z,62.79
2022-08-16T06:59:25.539Z,62.29
2022-08-16T07:01:58.299Z,62.00
2022-08-16T07:04:31.882Z,61.88
2022-08-16T07:07:01.913Z,61.87
2022-08-16T07:09:30.605Z,61.59
2022-08-16T07:12:05.393Z,61.58
2022-08-16T07:14:35.373Z,61.14
2022-08-16T07:17:08.200Z,60.90
2022-08-16T07:20:29.320Z,60.94
2022-08-16T07:22:52.962Z,61.12
2022-08-16T07:25:24.969Z,60.17
2022-08-16T07:27:52.859Z,60.03
2022-08-16T07:30:46.003Z,60.50
2022-08-16T07:33:52.005Z,59.53
2022-08-16T07:36:07.622Z,59.19
2022-08-16T07:38:41.364Z,58.53
2022-08-16T07:41:09.632Z,58.41
2022-08-16T07:43:40.545Z,57.55
2022-08-16T07:46:39.276Z,57.91
2022-08-16T07:49:02.360Z,57.91
2022-08-16T07:51:37.022Z,57.98
2022-08-16T07:54:11.447Z,57.57
2022-08-16T07:56:48.368Z,57.69
2022-08-16T07:59:16.167Z,56.79
2022-08-16T08:01:43.643Z,57.15
2022-08-16T08:04:13.149Z,56.74
2022-08-16T08:06:42.456Z,56.79
2022-08-16T08:09:16.238Z,56.95
2022-08-16T08:12:01.068Z,57.41
2022-08-16T08:14:29.403Z,55.97
2022-08-16T08:16:59.025Z,55.77
2022-08-16T08:19:30.148Z,55.44
2022-08-16T08:22:00.705Z,55.75
2022-08-16T08:24:53.366Z,55.32
2022-08-16T08:27:26.588Z,54.76
2022-08-16T08:30:50.537Z,54.31
2022-08-16T08:32:51.167Z,54.24
2022-08-16T08:35:28.728Z,54.31
2022-08-16T08:37:58.453Z,54.35
2022-08-16T08:40:29.593Z,54.12
2022-08-16T08:43:00.442Z,53.93
2022-08-16T08:45:48.381Z,53.61
2022-08-16T08:48:35.091Z,53.94
2022-08-16T08:51:11.140Z,53.81
2022-08-16T08:53:58.021Z,53.52
2022-08-16T08:56:32.459Z,53.47
2022-08-16T08:59:26.007Z,53.05
2022-08-16T09:01:57.032Z,51.73
2022-08-16T09:04:28.558Z,51.76
2022-08-16T09:06:58.384Z,52.53
2022-08-16T09:09:33.411Z,52.37
2022-08-16T09:12:06.189Z,51.99
2022-08-16T09:14:49.347Z,52.03
2022-08-16T09:17:38.221Z,51.62
2022-08-16T09:20:07.957Z,51.22
2022-08-16T09:22:34.976Z,51.10
2022-08-16T09:25:09.919Z,51.19
2022-08-16T09:27:57.369Z,51.71
2022-08-16T09:30:33.655Z,51.31
2022-08-16T09:33:06.814Z,51.20
2022-08-16T09:35:38.674Z,51.55
2022-08-16T09:38:08.637Z,50.91
2022-08-16T09:40:43.354Z,50.47
2022-08-16T09:43:37.768Z,49.96
2022-08-16T09:46:04.015Z,48.82
2022-08-16T09:48:52.888Z,48.44
2022-08-16T09:51:26.284Z,48.02
2022-08-16T09:53:57.899Z,47.48
2022-08-16T09:56:35.338Z,47.02
2022-08-16T09:59:07.951Z,47.10
2022-08-16T10:01:43.488Z,46.60
2022-08-16T10:04:30.257Z,46.10
2022-08-16T10:09:45.274Z,46.59
2022-08-16T10:12:42.435Z,47.10
2022-08-16T10:15:16.622Z,46.40
2022-08-16T10:18:00.232Z,45.70
2022-08-16T10:20:32.491Z,45.50
2022-08-16T10:23:06.936Z,45.85
2022-08-16T10:27:21.946Z,45.70
2022-08-16T10:28:39.098Z,45.83
2022-08-16T10:31:14.498Z,45.16
2022-08-16T10:33:44.227Z,44.69
2022-08-16T10:36:39.333Z,44.97
2022-08-16T10:39:00.897Z,44.37
2022-08-16T10:41:28.945Z,44.04
2022-08-16T10:43:56.720Z,44.55
2022-08-16T10:46:33.640Z,43.88
2022-08-16T10:49:01.470Z,43.54
2022-08-16T10:51:34.483Z,43.35
2022-08-16T10:54:28.648Z,42.88
2022-08-16T10:56:57.108Z,42.79
2022-08-16T10:59:32.905Z,42.42
2022-08-16T11:02:57.559Z,42.97
2022-08-16T11:05:08.761Z,42.07
2022-08-16T11:07:51.951Z,41.92
2022-08-16T11:16:26.786Z,42.06
2022-08-16T11:19:05.307Z,42.69
2022-08-16T11:22:23.274Z,42.02
2022-08-16T11:24:39.499Z,43.08
2022-08-16T11:27:32.774Z,42.65
2022-08-16T11:29:57.037Z,41.72
2022-08-16T11:32:31.494Z,41.51
2022-08-16T11:35:13.529Z,42.11
2022-08-16T11:40:46.911Z,40.98
2022-08-16T11:43:23.743Z,40.97
2022-08-16T11:45:54.684Z,40.44
2022-08-16T11:48:25.602Z,40.50
2022-08-16T11:50:53.145Z,40.65
2022-08-16T11:53:21.902Z,41.26
2022-08-16T11:55:54.772Z,41.18
2022-08-16T11:58:24.681Z,41.02
2022-08-16T12:00:55.628Z,41.12
2022-08-16T12:03:31.428Z,41.26
2022-08-16T12:06:30.334Z,41.22
2022-08-16T12:09:02.189Z,40.86
2022-08-16T12:11:31.580Z,40.35
2022-08-16T12:14:01.985Z,40.33
2022-08-16T12:16:34.483Z,40.37
2022-08-16T12:19:10.745Z,39.44
2022-08-16T12:21:58.837Z,38.36
2022-08-16T12:24:27.142Z,39.90
2022-08-16T12:26:54.549Z,39.75
2022-08-16T12:29:22.378Z,39.11
2022-08-16T12:32:01.586Z,38.34
2022-08-16T12:34:47.977Z,38.61
2022-08-16T12:37:18.156Z,38.50
2022-08-16T12:39:50.614Z,39.26
2022-08-16T12:42:19.390Z,38.97
2022-08-16T12:44:49.056Z,38.97
2022-08-16T12:47:37.257Z,38.86
2022-08-16T12:50:10.529Z,38.15
2022-08-16T12:52:53.001Z,38.18
2022-08-16T12:55:22.117Z,37.96
2022-08-16T12:57:58.406Z,37.60
2022-08-16T13:00:33.037Z,38.43
2022-08-16T13:03:03.375Z,38.32
2022-08-16T13:08:03.792Z,36.98
2022-08-16T13:10:36.829Z,37.03
2022-08-16T13:13:07.044Z,37.57
2022-08-16T13:15:51.617Z,37.30
2022-08-16T13:18:34.057Z,37.07
2022-08-16T13:21:05.023Z,37.01
2022-08-16T13:23:33.214Z,37.03
2022-08-16T13:26:00.527Z,37.25
2022-08-16T13:28:27.644Z,37.07
2022-08-16T13:30:56.804Z,36.91
2022-08-16T13:33:36.816Z,36.90
2022-08-16T13:36:17.101Z,36.62
2022-08-16T13:38:55.640Z,36.27
2022-08-16T13:41:24.203Z,35.55
2022-08-16T13:43:57.859Z,36.03
2022-08-16T13:46:27.290Z,35.39
2022-08-16T13:48:56.031Z,36.13
2022-08-16T13:51:25.223Z,35.86
2022-08-16T13:54:02.800Z,35.85
2022-08-16T13:56:37.875Z,35.62
2022-08-16T13:59:20.543Z,35.85
2022-08-16T14:01:55.890Z,36.41
2022-08-16T14:04:39.249Z,35.73
2022-08-16T14:07:11.335Z,36.20
2022-08-16T14:09:39.431Z,35.75
2022-08-16T14:12:29.387Z,34.67
2022-08-16T14:14:57.573Z,34.38
2022-08-16T14:17:26.570Z,34.85
2022-08-16T14:19:54.585Z,34.77
2022-08-16T14:22:42.353Z,34.07
2022-08-16T14:25:18.994Z,34.85
2022-08-16T14:27:46.628Z,34.89
2022-08-16T14:30:17.701Z,34.75
2022-08-16T14:32:46.756Z,35.04
2022-08-16T14:35:36.340Z,34.87
2022-08-16T14:38:04.802Z,34.66
2022-08-16T14:40:32.896Z,34.42
2022-08-16T14:43:07.324Z,33.75
2022-08-16T14:45:34.585Z,34.25
2022-08-16T14:48:01.502Z,33.93
2022-08-16T14:50:28.692Z,33.55
2022-08-16T14:53:01.182Z,33.88
2022-08-16T14:55:33.485Z,33.78
2022-08-16T14:58:05.815Z,34.12
2022-08-16T15:00:37.427Z,33.82
2022-08-16T15:03:09.664Z,33.47
2022-08-16T15:05:39.750Z,33.52
2022-08-16T15:08:06.934Z,34.18
2022-08-16T15:10:34.984Z,34.67
2022-08-16T15:13:09.561Z,33.65
2022-08-16T15:15:38.758Z,34.35
2022-08-16T15:18:11.747Z,33.28
2022-08-16T15:20:41.087Z,33.58
2022-08-16T15:23:09.968Z,32.80
2022-08-16T15:25:44.560Z,32.71
2022-08-16T15:28:30.958Z,33.04
2022-08-16T15:31:03.954Z,33.31
2022-08-16T15:33:42.709Z,33.45
2022-08-16T15:36:17.946Z,32.99
2022-08-16T15:39:02.916Z,33.13
2022-08-16T15:41:42.609Z,33.59
2022-08-16T15:44:22.393Z,33.16
2022-08-16T15:46:55.836Z,33.73
2022-08-16T15:49:34.687Z,33.75
2022-08-16T15:52:14.337Z,33.77
2022-08-16T15:54:53.527Z,33.56
2022-08-16T15:57:24.609Z,34.04
2022-08-16T15:59:56.152Z,33.72
2022-08-16T16:02:38.790Z,33.79
2022-08-16T16:05:11.188Z,33.06
2022-08-16T16:07:56.430Z,33.47
2022-08-16T16:10:29.833Z,33.80
2022-08-16T16:13:00.503Z,33.70
2022-08-16T16:15:31.646Z,33.70
2022-08-16T16:17:59.006Z,33.55
2022-08-16T16:20:35.548Z,33.19
2022-08-16T16:23:10.352Z,33.34
2022-08-16T16:25:44.022Z,33.43
2022-08-16T16:28:45.924Z,33.46
2022-08-16T16:31:12.484Z,33.73
2022-08-16T16:33:44.384Z,33.21
2022-08-16T16:36:17.212Z,32.91
2022-08-16T16:38:48.817Z,33.98
2022-08-16T16:41:23.336Z,33.84
2022-08-16T16:43:53.453Z,33.34
2022-08-16T16:46:42.396Z,33.90
2022-08-16T16:49:14.113Z,33.88
2022-08-16T16:51:44.666Z,33.56
2022-08-16T16:54:13.308Z,33.39
2022-08-16T16:56:49.759Z,32.90
2022-08-16T16:59:19.927Z,33.19
2022-08-16T17:02:00.495Z,33.08
2022-08-16T17:04:36.809Z,33.24
2022-08-16T17:07:03.886Z,32.97
2022-08-16T17:09:40.250Z,32.93
2022-08-16T17:12:09.062Z,32.71
2022-08-16T17:14:38.460Z,32.33
2022-08-16T17:17:11.562Z,32.22
2022-08-16T17:19:42.578Z,32.19
2022-08-16T17:22:16.086Z,31.89
2022-08-16T17:24:52.667Z,31.37
2022-08-16T17:27:33.821Z,31.17
2022-08-16T17:30:14.822Z,31.54
2022-08-16T17:32:50.096Z,31.62
2022-08-16T17:35:23.040Z,32.08
2022-08-16T17:37:51.720Z,32.14
2022-08-16T17:40:47.511Z,32.31
2022-08-16T17:43:17.190Z,32.90
2022-08-16T17:45:44.217Z,32.58
2022-08-16T17:48:11.772Z,32.90
2022-08-16T17:50:40.274Z,33.08
2022-08-16T17:53:07.771Z,32.77
2022-08-16T17:55:38.612Z,34.30
2022-08-16T17:58:10.539Z,33.35
2022-08-16T18:00:52.228Z,34.11
2022-08-16T18:04:02.810Z,34.24
2022-08-16T18:06:25.464Z,34.47
2022-08-16T18:09:01.765Z,35.08
2022-08-16T18:11:30.137Z,35.64
2022-08-16T18:14:00.484Z,35.23
2022-08-16T18:16:27.658Z,36.14
2022-08-16T18:18:54.560Z,35.76
2022-08-16T18:21:40.523Z,36.21
2022-08-16T18:24:08.744Z,36.34
2022-08-16T18:26:36.111Z,35.92
2022-08-16T18:29:03.276Z,36.15
2022-08-16T18:31:30.335Z,36.49
2022-08-16T18:33:57.225Z,36.76
2022-08-16T18:36:25.536Z,36.83
2022-08-16T18:38:54.015Z,37.24
2022-08-16T18:41:24.922Z,37.77
2022-08-16T18:44:22.289Z,37.79
2022-08-16T18:46:43.712Z,37.67
2022-08-16T18:49:13.247Z,37.61
2022-08-16T18:51:45.225Z,38.65
2022-08-16T18:54:17.843Z,38.66
2022-08-16T18:56:56.372Z,38.98
2022-08-16T18:59:27.758Z,38.93
2022-08-16T19:02:00.215Z,39.04
2022-08-16T19:04:50.348Z,39.38
2022-08-16T19:07:23.190Z,39.48
2022-08-16T19:10:01.777Z,38.92
2022-08-16T19:12:47.154Z,39.78
2022-08-16T19:15:22.827Z,39.93
2022-08-16T19:17:49.943Z,39.35
2022-08-16T19:20:20.606Z,39.60
2022-08-16T19:23:05.453Z,40.57
2022-08-16T19:25:48.697Z,40.58
2022-08-16T19:28:50.994Z,40.58
2022-08-16T19:31:31.096Z,41.05
2022-08-16T19:33:58.325Z,41.10
2022-08-16T19:36:37.902Z,41.09
2022-08-16T19:39:13.685Z,41.22
2022-08-16T19:41:53.341Z,41.45
2022-08-16T19:44:22.320Z,41.77
2022-08-16T19:46:49.570Z,41.95
2022-08-16T19:49:17.064Z,41.63
2022-08-16T19:51:48.285Z,41.87
2022-08-16T19:54:15.696Z,41.71
2022-08-16T19:56:42.619Z,42.02
2022-08-16T19:59:19.357Z,42.45
2022-08-16T20:01:50.030Z,42.37
2022-08-16T20:04:17.046Z,42.72
2022-08-16T20:06:43.961Z,42.74
2022-08-16T20:09:12.624Z,43.17
2022-08-16T20:11:46.704Z,43.14
2022-08-16T20:14:23.960Z,43.91
2022-08-16T20:16:55.154Z,43.80
2022-08-16T20:19:22.068Z,43.62
2022-08-16T20:21:49.743Z,43.86
2022-08-16T20:24:33.638Z,43.92
2022-08-16T20:27:02.815Z,44.03
2022-08-16T20:29:29.723Z,44.30
2022-08-16T20:31:56.830Z,44.84
2022-08-16T20:34:23.786Z,45.51
2022-08-16T20:36:50.731Z,46.26
2022-08-16T20:39:17.690Z,46.71
2022-08-16T20:41:45.163Z,47.35
2022-08-16T20:44:12.699Z,47.61
2022-08-16T20:46:39.986Z,48.13
2022-08-16T20:49:09.068Z,48.08
2022-08-16T20:51:46.509Z,47.72
2022-08-16T20:54:14.806Z,48.05
2022-08-16T20:56:41.838Z,48.38
2022-08-16T20:59:08.737Z,48.21
2022-08-16T21:01:49.658Z,48.04
2022-08-16T21:04:25.225Z,48.16
2022-08-16T21:06:53.713Z,48.21
2022-08-16T21:09:28.745Z,48.38
2022-08-16T21:11:57.357Z,48.43
2022-08-16T21:14:24.509Z,48.58
2022-08-16T21:16:51.544Z,48.34
2022-08-16T21:19:19.100Z,48.44
2022-08-16T21:21:46.468Z,48.49
2022-08-16T21:24:14.057Z,49.04
2022-08-16T21:26:40.992Z,49.12
2022-08-16T21:29:17.935Z,49.72
2022-08-16T21:31:44.901Z,49.30
2022-08-16T21:34:11.837Z,49.63
2022-08-16T21:36:38.793Z,49.90
2022-08-16T21:39:06.399Z,49.84
2022-08-16T21:41:35.226Z,50.09
2022-08-16T21:44:02.142Z,50.34
2022-08-16T21:46:29.124Z,50.38
2022-08-16T21:48:56.043Z,50.78
2022-08-16T21:51:22.947Z,50.81
2022-08-16T21:53:49.922Z,50.57
2022-08-16T21:56:17.590Z,50.63
2022-08-16T21:58:53.297Z,51.06
2022-08-16T22:01:23.104Z,50.86
2022-08-16T22:04:35.753Z,51.07
2022-08-16T22:06:39.253Z,50.95
2022-08-16T22:09:08.224Z,51.35
2022-08-16T22:11:35.521Z,51.40
2022-08-16T22:14:04.251Z,51.12
2022-08-16T22:16:35.163Z,51.56
2022-08-16T22:19:04.449Z,51.11
2022-08-16T22:21:32.439Z,50.96
2022-08-16T22:23:59.564Z,51.45
2022-08-16T22:26:32.218Z,51.26
2022-08-16T22:29:02.184Z,51.80
2022-08-16T22:31:29.316Z,51.69
2022-08-16T22:33:56.890Z,52.36
2022-08-16T22:36:28.462Z,52.13
2022-08-16T22:39:03.439Z,51.92
2022-08-16T22:41:32.645Z,52.42
2022-08-16T22:44:02.043Z,52.37
2022-08-16T22:46:30.209Z,52.70
2022-08-16T22:48:57.530Z,52.48
2022-08-16T22:51:27.285Z,53.09
2022-08-16T22:53:55.509Z,52.79
2022-08-16T22:56:23.892Z,53.42
2022-08-16T22:58:50.925Z,53.22
2022-08-16T23:01:22.803Z,53.80
2022-08-16T23:03:50.398Z,54.00
2022-08-16T23:06:17.824Z,53.73
2022-08-16T23:08:44.947Z,53.80
2022-08-16T23:11:22.507Z,54.27
2022-08-16T23:13:56.181Z,54.21
2022-08-16T23:16:33.239Z,54.64
2022-08-16T23:19:12.363Z,54.77
2022-08-16T23:21:43.759Z,54.66
2022-08-16T23:24:11.885Z,54.25
2022-08-16T23:26:47.934Z,54.73
2022-08-16T23:29:23.996Z,55.22
2022-08-16T23:32:08.369Z,55.00
2022-08-16T23:34:35.308Z,54.96
2022-08-16T23:37:02.227Z,54.86
2022-08-16T23:39:29.444Z,54.83
2022-08-16T23:41:56.422Z,55.35
2022-08-16T23:44:42.223Z,54.90
2022-08-16T23:47:10.827Z,55.65
2022-08-16T23:49:58.038Z,55.85
2022-08-16T23:52:53.944Z,55.59
2022-08-16T23:55:11.737Z,55.60
2022-08-16T23:57:38.666Z,55.40
